Time;durP1;ratioP1;P1;durP2;ratioP2;P2;SDS_P1;SDS_P2;PMS_P1;PMS_P2;Temp;Humidity;BMP_temperature;BMP_pressure;BME280_temperature;BME280_humidity;BME280_pressure;Samples;Min_cycle;Max_cycle;Signal;HPM_P1;HPM_P2
2023/08/16 00:01:21;;;;;;;;;;;;;;;;;;5111749;28;19912;-68
2023/08/16 00:05:07;;;;;;;;;;;;;;;;;;5111679;27;19923;-69
2023/08/16 00:08:18;;;;;;;;;;;;;;;;;;5112412;27;20292;-68
2023/08/16 00:10:44;;;;;;;;;;;;;;;;;;5111869;28;19991;-69
2023/08/16 00:14:55;;;;;;;;;;;;;;;;;;5112310;27;19989;-68
2023/08/16 00:18:41;;;;;;;;;;;;;;;;;;5111714;27;19915;-68
2023/08/16 00:23:25;;;;;;;;;;;;;;;;;;5112470;27;20287;-68
2023/08/16 00:26:39;;;;;;;;;;;;;;;;;;5111518;27;19916;-68
2023/08/16 00:29:50;;;;;;;;;;;;;;;;;;5112450;27;19916;-68
2023/08/16 00:32:16;;;;;;;;;;;;;;;;;;5111406;28;20011;-68
2023/08/16 00:35:48;;;;;;;;;;;;;;;;;;5112358;27;19915;-68
2023/08/16 00:38:14;;;;;;;;;;;;;;;;;;5112050;28;19999;-68
2023/08/16 00:40:40;;;;;;;;;;;;;;;;;;5111311;28;19954;-68
2023/08/16 00:45:10;;;;;;;;;;;;;;;;;;5112024;27;19912;-68
2023/08/16 00:48:37;;;;;;;;;;;;;;;;;;5112095;27;19916;-68
2023/08/16 00:51:03;;;;;;;;;;;;;;;;;;5111662;28;20007;-68
2023/08/16 00:55:23;;;;;;;;;;;;;;;;;;5103733;27;2105277;-68
2023/08/16 00:57:48;;;;;;;;;;;;;;;;;;5173690;27;19911;-68
2023/08/16 01:00:59;;;;;;;;;;;;;;;;;;5091215;27;19916;-68
2023/08/16 01:03:25;;;;;;;;;;;;;;;;;;5091372;28;20011;-68
2023/08/16 01:05:51;;;;;;;;;;;;;;;;;;5091221;28;19954;-68
2023/08/16 01:08:17;;;;;;;;;;;;;;;;;;5090885;28;19908;-68
2023/08/16 01:10:43;;;;;;;;;;;;;;;;;;5091215;28;19909;-68
2023/08/16 01:13:09;;;;;;;;;;;;;;;;;;5091236;28;19955;-68
2023/08/16 01:15:35;;;;;;;;;;;;;;;;;;5089376;28;19912;-68
2023/08/16 01:18:01;;;;;;;;;;;;;;;;;;5089820;28;20041;-68
2023/08/16 01:26:16;;;;;;;;;;;;;;;;;;5112566;27;19922;-68
2023/08/16 01:31:44;;;;;;;;;;;;;;;;;;5091479;27;20357;-69
2023/08/16 01:34:19;;;;;;;;;;;;;;;;;;5173840;27;20087;-70
2023/08/16 01:36:45;;;;;;;;;;;;;;;;;;5173277;27;20437;-68
2023/08/16 01:40:43;;;;;;;;;;;;;;;;;;5111702;27;20258;-69
2023/08/16 01:43:08;;;;;;;;;;;;;;;;;;5111350;28;20007;-69
2023/08/16 01:47:47;;;;;;;;;;;;;;;;;;5111820;27;20269;-68
2023/08/16 01:50:13;;;;;;;;;;;;;;;;;;5111684;28;19995;-68
2023/08/16 01:57:28;;;;;;;;;;;;;;;;;;5091304;28;19916;-68
2023/08/16 02:00:11;;;;;;;;;;;;;;;;;;5071768;28;19923;-69
2023/08/16 02:02:37;;;;;;;;;;;;;;;;;;5071223;28;19913;-69
2023/08/16 02:05:42;;;;;;;;;;;;;;;;;;5092077;27;19912;-69
2023/08/16 02:08:10;;;;;;;;;;;;;;;;;;5091472;28;19956;-68
2023/08/16 02:12:52;;;;;;;;;;;;;;;;;;5112046;27;19912;-68
2023/08/16 02:15:18;;;;;;;;;;;;;;;;;;5111723;28;19995;-68
2023/08/16 02:17:44;;;;;;;;;;;;;;;;;;5111250;28;19930;-69
2023/08/16 02:20:12;;;;;;;;;;;;;;;;;;5111688;28;19912;-68
2023/08/16 02:25:03;;;;;;;;;;;;;;;;;;5091258;27;19923;-68
2023/08/16 02:27:29;;;;;;;;;;;;;;;;;;5091723;28;19912;-68
2023/08/16 02:29:56;;;;;;;;;;;;;;;;;;5091500;28;19999;-68
2023/08/16 02:32:22;;;;;;;;;;;;;;;;;;5090993;28;20394;-68
2023/08/16 02:37:20;;;;;;;;;;;;;;;;;;5091575;27;20402;-69
2023/08/16 02:42:25;;;;;;;;;;;;;;;;;;5112294;27;19916;-69
2023/08/16 02:47:00;;;;;;;;;;;;;;;;;;5091336;27;20241;-68
2023/08/16 02:49:26;;;;;;;;;;;;;;;;;;5091507;28;20003;-69
2023/08/16 02:51:52;;;;;;;;;;;;;;;;;;5091267;28;20324;-69
2023/08/16 02:59:31;;;;;;;;;;;;;;;;;;5112265;27;20361;-68
2023/08/16 03:04:38;;;;;;;;;;;;;;;;;;5111882;27;20380;-68
2023/08/16 03:07:19;;;;;;;;;;;;;;;;;;5111654;27;19916;-70
2023/08/16 03:09:45;;;;;;;;;;;;;;;;;;5111790;28;19918;-69
2023/08/16 03:12:34;;;;;;;;;;;;;;;;;;5071751;28;19939;-70
2023/08/16 03:17:28;;;;;;;;;;;;;;;;;;5112473;27;19918;-70
2023/08/16 03:19:54;;;;;;;;;;;;;;;;;;5110496;28;19935;-70
2023/08/16 03:22:19;;;;;;;;;;;;;;;;;;5110012;28;20364;-70
2023/08/16 03:26:23;;;;;;;;;;;;;;;;;;5072025;28;19917;-68
2023/08/16 03:28:49;;;;;;;;;;;;;;;;;;5069515;28;19919;-69
2023/08/16 03:31:34;;;;;;;;;;;;;;;;;;5111859;27;19915;-69
2023/08/16 03:35:38;;;;;;;;;;;;;;;;;;5090847;27;19923;-69
2023/08/16 03:38:04;;;;;;;;;;;;;;;;;;5091321;28;19995;-68
2023/08/16 03:40:30;;;;;;;;;;;;;;;;;;5091240;28;19947;-69
2023/08/16 03:42:56;;;;;;;;;;;;;;;;;;5089575;28;19915;-69
2023/08/16 03:47:14;;;;;;;;;;;;;;;;;;5091765;27;19923;-69
2023/08/16 03:49:40;;;;;;;;;;;;;;;;;;5089724;28;20003;-69
2023/08/16 03:52:06;;;;;;;;;;;;;;;;;;5091305;28;19954;-69
2023/08/16 03:55:57;;;;;;;;;;;;;;;;;;5111386;27;19918;-68
2023/08/16 03:58:23;;;;;;;;;;;;;;;;;;5111762;28;20006;-68
2023/08/16 04:02:16;;;;;;;;;;;;;;;;;;5091638;27;20301;-69
2023/08/16 04:06:29;;;;;;;;;;;;;;;;;;5091965;27;19913;-68
2023/08/16 04:08:55;;;;;;;;;;;;;;;;;;5091440;28;20011;-68
2023/08/16 04:11:21;;;;;;;;;;;;;;;;;;5091119;28;19908;-69
2023/08/16 04:13:47;;;;;;;;;;;;;;;;;;5091296;28;20341;-69
2023/08/16 04:16:13;;;;;;;;;;;;;;;;;;5091327;28;19915;-69
2023/08/16 04:18:39;;;;;;;;;;;;;;;;;;5090761;28;20334;-69
2023/08/16 04:27:12;;;;;;;;;;;;;;;;;;5112455;27;20247;-68
2023/08/16 04:29:38;;;;;;;;;;;;;;;;;;5112240;28;19998;-68
2023/08/16 04:32:31;;;;;;;;;;;;;;;;;;5091213;27;19923;-69
2023/08/16 04:37:36;;;;;;;;;;;;;;;;;;5111882;27;20303;-68
2023/08/16 04:40:02;;;;;;;;;;;;;;;;;;5111355;28;20006;-70
2023/08/16 04:43:05;;;;;;;;;;;;;;;;;;5112126;27;20364;-68
2023/08/16 04:45:30;;;;;;;;;;;;;;;;;;5111327;28;20007;-68
2023/08/16 04:49:22;;;;;;;;;;;;;;;;;;5112038;27;20387;-68
2023/08/16 04:51:48;;;;;;;;;;;;;;;;;;5111716;28;19912;-68
2023/08/16 04:54:14;;;;;;;;;;;;;;;;;;5111332;28;19915;-68
2023/08/16 04:56:39;;;;;;;;;;;;;;;;;;5111684;28;19908;-69
2023/08/16 05:01:36;;;;;;;;;;;;;;;;;;5091617;27;19916;-69
2023/08/16 05:04:03;;;;;;;;;;;;;;;;;;5091346;28;20436;-69
2023/08/16 05:06:42;;;;;;;;;;;;;;;;;;5091564;27;19916;-68
2023/08/16 05:09:31;;;;;;;;;;;;;;;;;;5071825;28;19939;-68
2023/08/16 05:17:03;;;;;;;;;;;;;;;;;;5152857;27;20002;-69
2023/08/16 05:19:28;;;;;;;;;;;;;;;;;;5152817;27;19912;-69
2023/08/16 05:21:54;;;;;;;;;;;;;;;;;;5152611;27;20424;-68
2023/08/16 05:24:20;;;;;;;;;;;;;;;;;;5152725;27;20377;-68
2023/08/16 05:29:42;;;;;;;;;;;;;;;;;;5112578;27;19916;-69
2023/08/16 05:32:08;;;;;;;;;;;;;;;;;;5111655;28;19958;-68
2023/08/16 05:37:31;;;;;;;;;;;;;;;;;;5153120;27;20357;-68
2023/08/16 05:43:41;;;;;;;;;;;;;;;;;;5111590;27;20388;-69
2023/08/16 05:46:07;;;;;;;;;;;;;;;;;;5111707;28;20003;-68
2023/08/16 05:49:00;;;;;;;;;;;;;;;;;;5152956;27;20010;-68
2023/08/16 05:51:26;;;;;;;;;;;;;;;;;;5153432;27;19951;-69
2023/08/16 05:53:52;;;;;;;;;;;;;;;;;;5152862;27;19943;-70
2023/08/16 05:57:05;;;;;;;;;;;;;;;;;;5111587;27;19916;-69
2023/08/16 05:59:54;;;;;;;;;;;;;;;;;;5112189;27;19916;-68
2023/08/16 06:02:23;;;;;;;;;;;;;;;;;;5111680;28;20350;-69
2023/08/16 06:05:26;;;;;;;;;;;;;;;;;;5143414;27;19916;-68
2023/08/16 06:09:42;;;;;;;;;;;;;;;;;;5110963;27;19916;-72
2023/08/16 06:13:06;;;;;;;;;;;;;;;;;;5110880;27;19919;-66
2023/08/16 06:15:32;;;;;;;;;;;;;;;;;;5107609;28;19977;-67
2023/08/16 06:22:18;;;;;;;;;;;;;;;;;;5108310;27;19916;-65
2023/08/16 06:24:44;;;;;;;;;;;;;;;;;;5105976;28;19916;-65
2023/08/16 06:27:10;;;;;;;;;;;;;;;;;;5098370;28;19966;-66
2023/08/16 06:29:36;;;;;;;;;;;;;;;;;;5106141;28;20283;-65
2023/08/16 06:32:02;;;;;;;;;;;;;;;;;;5097478;28;19908;-65
2023/08/16 06:34:29;;;;;;;;;;;;;;;;;;5100557;28;20318;-66
2023/08/16 06:36:55;;;;;;;;;;;;;;;;;;5087289;28;19999;-66
2023/08/16 06:42:25;;;;;;;;;;;;;;;;;;5109591;27;19924;-67
2023/08/16 06:45:54;;;;;;;;;;;;;;;;;;5139119;27;19922;-67
2023/08/16 06:48:20;;;;;;;;;;;;;;;;;;5131122;28;20003;-67
2023/08/16 06:54:37;;;;;;;;;;;;;;;;;;5090258;27;20381;-68
2023/08/16 06:59:11;;;;;;;;;;;;;;;;;;5109487;27;19920;-67
2023/08/16 07:02:52;;;;;;;;;;;;;;;;;;5150137;27;19938;-67
2023/08/16 07:05:18;;;;;;;;;;;;;;;;;;5146600;27;19957;-69
2023/08/16 07:07:44;;;;;;;;;;;;;;;;;;5150223;27;20359;-68
2023/08/16 07:10:10;;;;;;;;;;;;;;;;;;5134386;27;19912;-67
2023/08/16 07:12:36;;;;;;;;;;;;;;;;;;5117235;28;20355;-68
2023/08/16 07:15:01;;;;;;;;;;;;;;;;;;5128126;27;20014;-67
2023/08/16 07:17:27;;;;;;;;;;;;;;;;;;5122150;28;19908;-66
2023/08/16 07:19:53;;;;;;;;;;;;;;;;;;5104655;28;19908;-67
2023/08/16 07:22:24;;;;;;;;;;;;;;;;;;5125922;28;19924;-67
2023/08/16 07:24:50;;;;;;;;;;;;;;;;;;5117670;28;19912;-67
2023/08/16 07:27:16;;;;;;;;;;;;;;;;;;5107070;28;19907;-67
2023/08/16 07:29:44;;;;;;;;;;;;;;;;;;5111849;28;19927;-68
2023/08/16 07:32:10;;;;;;;;;;;;;;;;;;5133144;27;20010;-67
2023/08/16 07:34:36;;;;;;;;;;;;;;;;;;5128073;28;19926;-68
2023/08/16 07:37:31;;;;;;;;;;;;;;;;;;5096361;27;19930;-67
2023/08/16 07:39:57;;;;;;;;;;;;;;;;;;5109821;28;19916;-66
2023/08/16 07:42:24;;;;;;;;;;;;;;;;;;5092516;28;19978;-68
2023/08/16 07:44:50;;;;;;;;;;;;;;;;;;5092760;28;19967;-67
2023/08/16 07:47:15;;;;;;;;;;;;;;;;;;5085825;28;19952;-67
2023/08/16 07:50:05;;;;;;;;;;;;;;;;;;5094107;27;2228091;-66
2023/08/16 07:52:30;;;;;;;;;;;;;;;;;;5144876;27;19915;-67
2023/08/16 07:54:56;;;;;;;;;;;;;;;;;;5137199;27;20355;-67
2023/08/16 07:57:22;;;;;;;;;;;;;;;;;;5112725;28;20355;-67
2023/08/16 07:59:48;;;;;;;;;;;;;;;;;;5130032;28;19960;-67
2023/08/16 08:04:38;;;;;;;;;;;;;;;;;;5139771;27;19919;-68
2023/08/16 08:07:04;;;;;;;;;;;;;;;;;;5112318;28;20413;-68
2023/08/16 08:09:31;;;;;;;;;;;;;;;;;;5111777;28;19965;-66
2023/08/16 08:11:57;;;;;;;;;;;;;;;;;;5130519;28;20721;-66
2023/08/16 08:14:23;;;;;;;;;;;;;;;;;;5130335;28;20014;-66
2023/08/16 08:16:49;;;;;;;;;;;;;;;;;;5128593;28;20360;-66
2023/08/16 08:19:15;;;;;;;;;;;;;;;;;;5129806;28;20010;-66
2023/08/16 08:21:41;;;;;;;;;;;;;;;;;;5112208;28;20332;-66
2023/08/16 08:25:20;;;;;;;;;;;;;;;;;;5151874;27;19921;-66
2023/08/16 08:27:46;;;;;;;;;;;;;;;;;;5152137;27;19957;-67
2023/08/16 08:30:12;;;;;;;;;;;;;;;;;;5140797;27;20383;-67
2023/08/16 08:32:38;;;;;;;;;;;;;;;;;;5149717;27;19911;-67
2023/08/16 08:35:04;;;;;;;;;;;;;;;;;;5137054;27;19961;-67
2023/08/16 08:37:31;;;;;;;;;;;;;;;;;;5150058;27;19957;-66
2023/08/16 08:39:57;;;;;;;;;;;;;;;;;;5112742;28;19916;-67
2023/08/16 08:42:23;;;;;;;;;;;;;;;;;;5130560;27;19912;-66
2023/08/16 08:44:49;;;;;;;;;;;;;;;;;;5140360;27;19975;-66
2023/08/16 08:47:15;;;;;;;;;;;;;;;;;;5131575;27;20006;-66
2023/08/16 08:49:41;;;;;;;;;;;;;;;;;;5149107;27;19907;-66
2023/08/16 08:52:07;;;;;;;;;;;;;;;;;;5134002;27;19923;-65
2023/08/16 08:54:33;;;;;;;;;;;;;;;;;;5121618;28;20003;-67
2023/08/16 08:57:05;;;;;;;;;;;;;;;;;;5142957;27;20488;-66
2023/08/16 08:59:32;;;;;;;;;;;;;;;;;;5114571;27;20295;-65
2023/08/16 09:01:58;;;;;;;;;;;;;;;;;;5135105;27;20512;-67
2023/08/16 09:04:24;;;;;;;;;;;;;;;;;;5139527;27;19968;-67
2023/08/16 09:06:50;;;;;;;;;;;;;;;;;;5116067;27;20006;-67
2023/08/16 09:09:17;;;;;;;;;;;;;;;;;;5125569;27;19915;-66
2023/08/16 09:11:43;;;;;;;;;;;;;;;;;;5129126;28;19911;-66
2023/08/16 09:14:09;;;;;;;;;;;;;;;;;;5129865;27;19912;-66
2023/08/16 09:16:35;;;;;;;;;;;;;;;;;;5128833;28;19957;-66
2023/08/16 09:19:01;;;;;;;;;;;;;;;;;;5116552;27;19998;-65
2023/08/16 09:21:28;;;;;;;;;;;;;;;;;;5137811;27;19919;-66
2023/08/16 09:23:54;;;;;;;;;;;;;;;;;;5107304;28;19927;-66
2023/08/16 09:26:21;;;;;;;;;;;;;;;;;;5125896;28;20284;-66
2023/08/16 09:28:47;;;;;;;;;;;;;;;;;;5120756;28;19908;-66
2023/08/16 09:31:13;;;;;;;;;;;;;;;;;;5106315;28;19931;-66
2023/08/16 09:33:39;;;;;;;;;;;;;;;;;;5107102;28;19957;-66
2023/08/16 09:36:05;;;;;;;;;;;;;;;;;;5100800;28;19911;-65
2023/08/16 09:38:32;;;;;;;;;;;;;;;;;;5100572;28;19916;-67
2023/08/16 09:40:58;;;;;;;;;;;;;;;;;;5093760;28;19954;-65
2023/08/16 09:43:24;;;;;;;;;;;;;;;;;;5094152;28;20001;-66
2023/08/16 09:45:51;;;;;;;;;;;;;;;;;;5093982;28;19916;-67
2023/08/16 09:48:17;;;;;;;;;;;;;;;;;;5093995;28;19909;-68
2023/08/16 09:50:44;;;;;;;;;;;;;;;;;;5094775;28;20461;-68
2023/08/16 09:53:10;;;;;;;;;;;;;;;;;;5096205;28;19916;-68
2023/08/16 09:55:35;;;;;;;;;;;;;;;;;;5094404;28;19962;-68
2023/08/16 09:58:02;;;;;;;;;;;;;;;;;;5096938;28;19923;-68
2023/08/16 10:00:27;;;;;;;;;;;;;;;;;;5100805;28;19918;-68
2023/08/16 10:02:53;;;;;;;;;;;;;;;;;;5115821;28;19990;-68
2023/08/16 10:05:19;;;;;;;;;;;;;;;;;;5116167;28;19916;-68
2023/08/16 10:07:49;;;;;;;;;;;;;;;;;;5115001;28;19958;-67
2023/08/16 10:10:15;;;;;;;;;;;;;;;;;;5114443;28;19908;-69
2023/08/16 10:12:40;;;;;;;;;;;;;;;;;;5116208;28;19907;-70
2023/08/16 10:15:06;;;;;;;;;;;;;;;;;;5105831;28;19938;-70
2023/08/16 10:17:32;;;;;;;;;;;;;;;;;;5108227;28;20002;-68
2023/08/16 10:19:58;;;;;;;;;;;;;;;;;;5116154;28;19912;-67
2023/08/16 10:22:24;;;;;;;;;;;;;;;;;;5110237;28;19923;-69
2023/08/16 10:24:50;;;;;;;;;;;;;;;;;;5109118;28;19919;-68
2023/08/16 10:27:16;;;;;;;;;;;;;;;;;;5127204;27;19961;-68
2023/08/16 10:29:42;;;;;;;;;;;;;;;;;;5115863;27;20003;-69
2023/08/16 10:32:08;;;;;;;;;;;;;;;;;;5100939;27;19912;-68
2023/08/16 10:34:34;;;;;;;;;;;;;;;;;;5124366;27;19907;-68
2023/08/16 10:37:00;;;;;;;;;;;;;;;;;;5134505;27;19916;-66
2023/08/16 10:39:26;;;;;;;;;;;;;;;;;;5117445;27;19915;-69
2023/08/16 10:41:53;;;;;;;;;;;;;;;;;;5132283;27;19912;-69
2023/08/16 10:44:19;;;;;;;;;;;;;;;;;;5122235;27;20018;-69
2023/08/16 10:46:46;;;;;;;;;;;;;;;;;;5134879;27;19914;-68
2023/08/16 10:49:11;;;;;;;;;;;;;;;;;;5121157;27;19951;-70
2023/08/16 10:51:37;;;;;;;;;;;;;;;;;;5112682;28;19943;-69
2023/08/16 10:54:03;;;;;;;;;;;;;;;;;;5113231;28;19908;-66
2023/08/16 10:56:29;;;;;;;;;;;;;;;;;;5113336;28;19911;-69
2023/08/16 10:58:55;;;;;;;;;;;;;;;;;;5112748;28;20352;-69
2023/08/16 11:01:21;;;;;;;;;;;;;;;;;;5128363;27;20681;-69
2023/08/16 11:03:49;;;;;;;;;;;;;;;;;;5115766;27;20349;-68
2023/08/16 11:06:16;;;;;;;;;;;;;;;;;;5114797;27;20380;-67
2023/08/16 11:08:42;;;;;;;;;;;;;;;;;;5133739;27;20363;-68
2023/08/16 11:11:07;;;;;;;;;;;;;;;;;;5098674;27;19916;-68
2023/08/16 11:13:33;;;;;;;;;;;;;;;;;;5119162;27;19919;-69
2023/08/16 11:15:59;;;;;;;;;;;;;;;;;;5113052;28;19919;-71
2023/08/16 11:18:26;;;;;;;;;;;;;;;;;;5096352;28;19908;-70
2023/08/16 11:20:51;;;;;;;;;;;;;;;;;;5096485;28;20314;-70
2023/08/16 11:23:17;;;;;;;;;;;;;;;;;;5096279;28;19919;-70
2023/08/16 11:25:44;;;;;;;;;;;;;;;;;;5096641;28;20006;-70
2023/08/16 11:28:10;;;;;;;;;;;;;;;;;;5114707;28;19908;-70
2023/08/16 11:30:36;;;;;;;;;;;;;;;;;;5096806;28;20312;-70
2023/08/16 11:33:02;;;;;;;;;;;;;;;;;;5114632;28;20314;-70
2023/08/16 11:35:28;;;;;;;;;;;;;;;;;;5114890;28;20279;-70
2023/08/16 11:37:54;;;;;;;;;;;;;;;;;;5096594;28;19951;-69
2023/08/16 11:40:24;;;;;;;;;;;;;;;;;;5122215;27;19960;-70
2023/08/16 11:42:50;;;;;;;;;;;;;;;;;;5134891;27;19911;-70
2023/08/16 11:45:17;;;;;;;;;;;;;;;;;;5115404;27;19960;-70
2023/08/16 11:47:43;;;;;;;;;;;;;;;;;;5115692;27;20369;-70
2023/08/16 11:50:09;;;;;;;;;;;;;;;;;;5133715;27;20371;-70
2023/08/16 11:52:35;;;;;;;;;;;;;;;;;;5116748;27;19915;-70
2023/08/16 11:55:01;;;;;;;;;;;;;;;;;;5116304;27;20027;-70
2023/08/16 11:57:27;;;;;;;;;;;;;;;;;;5134012;27;19934;-70
2023/08/16 11:59:54;;;;;;;;;;;;;;;;;;5133847;27;20048;-70
2023/08/16 12:02:20;;;;;;;;;;;;;;;;;;5134052;27;19914;-70
2023/08/16 12:04:46;;;;;;;;;;;;;;;;;;5134387;27;19922;-70
2023/08/16 12:07:12;;;;;;;;;;;;;;;;;;5134475;27;20005;-70
2023/08/16 12:09:38;;;;;;;;;;;;;;;;;;5134073;27;19908;-70
2023/08/16 12:12:04;;;;;;;;;;;;;;;;;;5134510;27;19914;-70
2023/08/16 12:14:30;;;;;;;;;;;;;;;;;;5134785;27;19911;-70
2023/08/16 12:16:56;;;;;;;;;;;;;;;;;;5134744;27;19915;-70
2023/08/16 12:19:22;;;;;;;;;;;;;;;;;;5135022;27;19937;-70
2023/08/16 12:21:48;;;;;;;;;;;;;;;;;;5134717;27;19953;-70
2023/08/16 12:24:14;;;;;;;;;;;;;;;;;;5134101;28;20002;-70
2023/08/16 12:26:40;;;;;;;;;;;;;;;;;;5134717;28;19973;-70
2023/08/16 12:29:06;;;;;;;;;;;;;;;;;;5134724;28;19907;-70
2023/08/16 12:31:32;;;;;;;;;;;;;;;;;;5134350;28;20282;-70
2023/08/16 12:33:58;;;;;;;;;;;;;;;;;;5134653;28;20275;-70
2023/08/16 12:36:24;;;;;;;;;;;;;;;;;;5115793;28;19938;-70
2023/08/16 12:38:50;;;;;;;;;;;;;;;;;;5134650;28;19918;-70
2023/08/16 12:41:16;;;;;;;;;;;;;;;;;;5134578;28;20002;-71
2023/08/16 12:43:42;;;;;;;;;;;;;;;;;;5134151;28;19916;-71
2023/08/16 12:46:08;;;;;;;;;;;;;;;;;;5135031;28;19908;-70
2023/08/16 12:48:34;;;;;;;;;;;;;;;;;;5134715;28;19907;-70
2023/08/16 12:51:00;;;;;;;;;;;;;;;;;;5134048;28;19908;-70
2023/08/16 12:53:30;;;;;;;;;;;;;;;;;;5134484;28;19907;-70
2023/08/16 12:55:56;;;;;;;;;;;;;;;;;;5134360;28;19911;-70
2023/08/16 12:58:22;;;;;;;;;;;;;;;;;;5133948;28;19908;-70
2023/08/16 13:00:47;;;;;;;;;;;;;;;;;;5134318;28;20439;-70
2023/08/16 13:03:13;;;;;;;;;;;;;;;;;;5115854;28;20252;-70
2023/08/16 13:05:40;;;;;;;;;;;;;;;;;;5133714;28;20287;-72
2023/08/16 13:08:06;;;;;;;;;;;;;;;;;;5134241;28;19908;-71
2023/08/16 13:10:32;;;;;;;;;;;;;;;;;;5135539;27;19936;-70
2023/08/16 13:12:58;;;;;;;;;;;;;;;;;;5137869;27;19911;-70
2023/08/16 13:15:24;;;;;;;;;;;;;;;;;;5138234;27;20378;-70
2023/08/16 13:17:50;;;;;;;;;;;;;;;;;;5119768;27;20411;-70
2023/08/16 13:20:17;;;;;;;;;;;;;;;;;;5137794;27;19907;-70
2023/08/16 13:22:43;;;;;;;;;;;;;;;;;;5138105;27;20342;-70
2023/08/16 13:25:10;;;;;;;;;;;;;;;;;;5119421;27;20018;-70
2023/08/16 13:27:35;;;;;;;;;;;;;;;;;;5137639;27;19955;-71
2023/08/16 13:30:01;;;;;;;;;;;;;;;;;;5137954;27;19992;-71
2023/08/16 13:32:27;;;;;;;;;;;;;;;;;;5138110;27;19908;-71
2023/08/16 13:34:53;;;;;;;;;;;;;;;;;;5137452;27;19908;-71
2023/08/16 13:37:19;;;;;;;;;;;;;;;;;;5137783;27;19911;-71
2023/08/16 13:39:45;;;;;;;;;;;;;;;;;;5118878;27;19960;-71
2023/08/16 13:42:11;;;;;;;;;;;;;;;;;;5137665;27;19995;-71
2023/08/16 13:44:37;;;;;;;;;;;;;;;;;;5137543;27;19937;-71
2023/08/16 13:47:04;;;;;;;;;;;;;;;;;;5137413;27;19911;-71
2023/08/16 13:49:30;;;;;;;;;;;;;;;;;;5137499;27;19911;-70
2023/08/16 13:51:56;;;;;;;;;;;;;;;;;;5137540;27;19908;-72
2023/08/16 13:54:21;;;;;;;;;;;;;;;;;;5118618;27;19914;-70
2023/08/16 13:56:47;;;;;;;;;;;;;;;;;;5137481;27;19952;-72
2023/08/16 13:59:14;;;;;;;;;;;;;;;;;;5137624;27;19954;-72
2023/08/16 14:01:40;;;;;;;;;;;;;;;;;;5136955;27;19914;-72
2023/08/16 14:04:07;;;;;;;;;;;;;;;;;;5137480;27;19919;-72
2023/08/16 14:06:32;;;;;;;;;;;;;;;;;;5118800;27;19914;-72
2023/08/16 14:08:58;;;;;;;;;;;;;;;;;;5136925;27;20270;-72
2023/08/16 14:11:24;;;;;;;;;;;;;;;;;;5137458;27;20272;-72
2023/08/16 14:13:51;;;;;;;;;;;;;;;;;;5118575;27;19908;-71
2023/08/16 14:16:17;;;;;;;;;;;;;;;;;;5136705;27;20312;-71
2023/08/16 14:18:43;;;;;;;;;;;;;;;;;;5136948;27;19911;-70
2023/08/16 14:21:09;;;;;;;;;;;;;;;;;;5118369;27;19907;-70
2023/08/16 14:23:35;;;;;;;;;;;;;;;;;;5136214;27;19922;-71
2023/08/16 14:26:01;;;;;;;;;;;;;;;;;;5136809;27;19916;-71
2023/08/16 14:28:27;;;;;;;;;;;;;;;;;;5136775;27;19987;-70
2023/08/16 14:30:53;;;;;;;;;;;;;;;;;;5136270;27;19907;-72
2023/08/16 14:33:19;;;;;;;;;;;;;;;;;;5118223;27;19909;-71
2023/08/16 14:35:45;;;;;;;;;;;;;;;;;;5136815;27;19908;-71
2023/08/16 14:38:11;;;;;;;;;;;;;;;;;;5136194;27;19907;-71
2023/08/16 14:40:37;;;;;;;;;;;;;;;;;;5137149;27;19907;-71
2023/08/16 14:43:03;;;;;;;;;;;;;;;;;;5136291;27;20002;-71
2023/08/16 14:45:28;;;;;;;;;;;;;;;;;;5136483;27;19919;-71
2023/08/16 14:47:54;;;;;;;;;;;;;;;;;;5136526;27;19907;-70
2023/08/16 14:50:20;;;;;;;;;;;;;;;;;;5136197;27;19914;-71
2023/08/16 14:52:46;;;;;;;;;;;;;;;;;;5117838;27;19907;-71
2023/08/16 14:55:12;;;;;;;;;;;;;;;;;;5136266;27;20014;-71
2023/08/16 14:57:38;;;;;;;;;;;;;;;;;;5135769;27;19931;-71
2023/08/16 15:00:07;;;;;;;;;;;;;;;;;;5136141;27;19907;-71
2023/08/16 15:02:33;;;;;;;;;;;;;;;;;;5136228;27;19951;-71
2023/08/16 15:04:59;;;;;;;;;;;;;;;;;;5135596;27;20022;-71
2023/08/16 15:07:26;;;;;;;;;;;;;;;;;;5136515;27;19929;-71
2023/08/16 15:09:52;;;;;;;;;;;;;;;;;;5136033;27;20378;-71
2023/08/16 15:12:18;;;;;;;;;;;;;;;;;;5135566;27;19908;-71
2023/08/16 15:14:44;;;;;;;;;;;;;;;;;;5135832;27;19908;-71
2023/08/16 15:17:10;;;;;;;;;;;;;;;;;;5117381;27;19911;-71
2023/08/16 15:19:40;;;;;;;;;;;;;;;;;;5135420;27;19933;-71
2023/08/16 15:22:06;;;;;;;;;;;;;;;;;;5135733;27;19955;-71
2023/08/16 15:24:32;;;;;;;;;;;;;;;;;;5113599;28;20406;-71
2023/08/16 15:26:58;;;;;;;;;;;;;;;;;;5114715;28;20356;-71
2023/08/16 15:29:23;;;;;;;;;;;;;;;;;;5113790;28;20241;-71
2023/08/16 15:31:49;;;;;;;;;;;;;;;;;;5114979;28;19912;-71
2023/08/16 15:34:15;;;;;;;;;;;;;;;;;;5112796;28;19958;-71
2023/08/16 15:36:43;;;;;;;;;;;;;;;;;;5114850;28;19908;-71
2023/08/16 15:39:09;;;;;;;;;;;;;;;;;;5113247;28;19908;-72
2023/08/16 15:41:35;;;;;;;;;;;;;;;;;;5114871;28;19942;-71
2023/08/16 15:44:01;;;;;;;;;;;;;;;;;;5114634;28;19955;-71
2023/08/16 15:46:27;;;;;;;;;;;;;;;;;;5114643;28;19907;-71
2023/08/16 15:48:53;;;;;;;;;;;;;;;;;;5114722;28;19915;-71
2023/08/16 15:51:19;;;;;;;;;;;;;;;;;;5114621;28;19911;-71
2023/08/16 15:53:45;;;;;;;;;;;;;;;;;;5114239;28;19914;-71
2023/08/16 15:56:11;;;;;;;;;;;;;;;;;;5114544;28;19908;-71
2023/08/16 15:58:37;;;;;;;;;;;;;;;;;;5114591;28;19947;-71
2023/08/16 16:01:03;;;;;;;;;;;;;;;;;;5112891;28;19915;-71
2023/08/16 16:03:30;;;;;;;;;;;;;;;;;;5113188;28;19933;-71
2023/08/16 16:05:56;;;;;;;;;;;;;;;;;;5112891;28;20265;-70
2023/08/16 16:08:22;;;;;;;;;;;;;;;;;;5114029;28;19914;-70
2023/08/16 16:10:48;;;;;;;;;;;;;;;;;;5113072;28;19908;-70
2023/08/16 16:13:13;;;;;;;;;;;;;;;;;;5114288;28;19923;-70
2023/08/16 16:15:39;;;;;;;;;;;;;;;;;;5113959;28;19911;-70
2023/08/16 16:18:06;;;;;;;;;;;;;;;;;;5112938;28;19908;-70
2023/08/16 16:20:31;;;;;;;;;;;;;;;;;;5114215;28;19999;-70
2023/08/16 16:22:57;;;;;;;;;;;;;;;;;;5113805;28;20061;-70
2023/08/16 16:25:23;;;;;;;;;;;;;;;;;;5112817;28;19920;-71
2023/08/16 16:27:49;;;;;;;;;;;;;;;;;;5112853;28;19916;-71
2023/08/16 16:30:15;;;;;;;;;;;;;;;;;;5113669;28;19908;-70
2023/08/16 16:32:46;;;;;;;;;;;;;;;;;;5112768;28;20360;-71
2023/08/16 16:35:12;;;;;;;;;;;;;;;;;;5114355;28;20360;-70
2023/08/16 16:37:38;;;;;;;;;;;;;;;;;;5113781;28;19915;-70
2023/08/16 16:40:04;;;;;;;;;;;;;;;;;;5114124;28;19915;-70
2023/08/16 16:42:30;;;;;;;;;;;;;;;;;;5113887;28;20272;-70
2023/08/16 16:44:56;;;;;;;;;;;;;;;;;;5114326;28;20380;-71
2023/08/16 16:47:22;;;;;;;;;;;;;;;;;;5118184;28;20279;-70
2023/08/16 16:49:48;;;;;;;;;;;;;;;;;;5117746;28;20632;-70
2023/08/16 16:52:14;;;;;;;;;;;;;;;;;;5118073;28;20346;-70
2023/08/16 16:54:40;;;;;;;;;;;;;;;;;;5117929;28;19912;-70
2023/08/16 16:57:06;;;;;;;;;;;;;;;;;;5117576;28;19908;-70
2023/08/16 16:59:32;;;;;;;;;;;;;;;;;;5118105;28;19915;-70
2023/08/16 17:01:57;;;;;;;;;;;;;;;;;;5118009;28;19908;-70
2023/08/16 17:04:23;;;;;;;;;;;;;;;;;;5117420;28;19916;-70
2023/08/16 17:06:49;;;;;;;;;;;;;;;;;;5117811;28;19918;-70
2023/08/16 17:09:15;;;;;;;;;;;;;;;;;;5117766;28;19915;-70
2023/08/16 17:11:41;;;;;;;;;;;;;;;;;;5117248;28;19954;-69
2023/08/16 17:14:07;;;;;;;;;;;;;;;;;;5117935;28;19908;-70
2023/08/16 17:16:33;;;;;;;;;;;;;;;;;;5117529;28;19908;-70
2023/08/16 17:18:59;;;;;;;;;;;;;;;;;;5115757;28;19911;-70
2023/08/16 17:21:25;;;;;;;;;;;;;;;;;;5116200;28;19915;-70
2023/08/16 17:23:51;;;;;;;;;;;;;;;;;;5120785;27;20010;-70
2023/08/16 17:26:17;;;;;;;;;;;;;;;;;;5119186;27;19968;-70
2023/08/16 17:28:43;;;;;;;;;;;;;;;;;;5138026;27;19907;-70
2023/08/16 17:31:10;;;;;;;;;;;;;;;;;;5137916;27;19994;-70
2023/08/16 17:33:36;;;;;;;;;;;;;;;;;;5137415;27;19998;-70
2023/08/16 17:36:02;;;;;;;;;;;;;;;;;;5137668;27;20393;-69
2023/08/16 17:38:28;;;;;;;;;;;;;;;;;;5137755;27;19939;-70
2023/08/16 17:40:54;;;;;;;;;;;;;;;;;;5118871;27;19930;-70
2023/08/16 17:43:20;;;;;;;;;;;;;;;;;;5137468;27;20064;-70
2023/08/16 17:45:47;;;;;;;;;;;;;;;;;;5137187;27;20325;-71
2023/08/16 17:48:13;;;;;;;;;;;;;;;;;;5137516;27;19907;-71
2023/08/16 17:50:39;;;;;;;;;;;;;;;;;;5119083;27;19934;-70
2023/08/16 17:53:04;;;;;;;;;;;;;;;;;;5137141;27;20251;-69
2023/08/16 17:57:00;;;;;;;;;;;;;;;;;;5111943;27;20295;-70
2023/08/16 17:59:26;;;;;;;;;;;;;;;;;;5112238;28;19918;-71
2023/08/16 18:01:53;;;;;;;;;;;;;;;;;;5111304;28;19908;-70
2023/08/16 18:04:19;;;;;;;;;;;;;;;;;;5111642;28;19912;-70
2023/08/16 18:06:45;;;;;;;;;;;;;;;;;;5111468;28;19908;-69
2023/08/16 18:09:11;;;;;;;;;;;;;;;;;;5111134;28;19908;-70
2023/08/16 18:11:37;;;;;;;;;;;;;;;;;;5111505;28;19939;-69
2023/08/16 18:14:02;;;;;;;;;;;;;;;;;;5110964;28;19908;-70
2023/08/16 18:16:28;;;;;;;;;;;;;;;;;;5111280;28;19968;-70
2023/08/16 18:18:55;;;;;;;;;;;;;;;;;;5111250;28;19908;-70
2023/08/16 18:21:20;;;;;;;;;;;;;;;;;;5111022;28;19908;-70
2023/08/16 18:23:46;;;;;;;;;;;;;;;;;;5111073;28;19912;-70
2023/08/16 18:26:12;;;;;;;;;;;;;;;;;;5111215;28;19946;-70
2023/08/16 18:28:38;;;;;;;;;;;;;;;;;;5111051;28;19908;-70
2023/08/16 18:31:05;;;;;;;;;;;;;;;;;;5111037;28;19978;-70
2023/08/16 18:33:31;;;;;;;;;;;;;;;;;;5111041;28;19908;-70
2023/08/16 18:35:57;;;;;;;;;;;;;;;;;;5110395;28;19916;-70
2023/08/16 18:38:23;;;;;;;;;;;;;;;;;;5110951;28;19947;-71
2023/08/16 18:40:49;;;;;;;;;;;;;;;;;;5110966;28;19908;-69